Time;durP1;ratioP1;P1;durP2;ratioP2;P2;SDS_P1;SDS_P2;PMS_P1;PMS_P2;Temp;Humidity;BMP_temperature;BMP_pressure;BME280_temperature;BME280_humidity;BME280_pressure;Samples;Min_cycle;Max_cycle;Signal;HPM_P1;HPM_P2
2022/02/19 00:02:26;;;;;;;9.13;1.67;;;6.20;71.00;;;;;;5072899;28;20488;-81
2022/02/19 00:04:51;;;;;;;11.45;1.60;;;6.20;70.80;;;;;;5073732;28;20032;-81
2022/02/19 00:07:18;;;;;;;4.15;1.08;;;6.20;70.00;;;;;;5074320;28;20431;-80
2022/02/19 00:09:44;;;;;;;6.18;1.38;;;6.20;69.20;;;;;;5036083;28;1152765;-80
2022/02/19 00:12:10;;;;;;;10.95;1.48;;;6.30;68.60;;;;;;5058653;28;20033;-82
2022/02/19 00:14:35;;;;;;;10.35;2.05;;;6.30;68.50;;;;;;5074720;28;20044;-80
2022/02/19 00:17:03;;;;;;;9.02;1.73;;;6.30;69.10;;;;;;5074766;28;20020;-82
2022/02/19 00:19:30;;;;;;;10.05;2.05;;;6.30;69.20;;;;;;5074582;28;20020;-82
2022/02/19 00:21:55;;;;;;;10.43;1.50;;;6.30;69.00;;;;;;5074895;28;20035;-81
2022/02/19 00:24:21;;;;;;;11.77;1.75;;;6.40;68.80;;;;;;5074556;28;20024;-80
2022/02/19 00:26:47;;;;;;;7.28;1.60;;;6.30;69.40;;;;;;5074596;28;20025;-81
2022/02/19 00:29:12;;;;;;;11.02;1.63;;;6.30;69.70;;;;;;5074456;28;20503;-81
2022/02/19 00:31:38;;;;;;;4.88;1.10;;;6.30;69.00;;;;;;5074446;28;20024;-81
2022/02/19 00:34:03;;;;;;;7.20;1.60;;;6.30;68.80;;;;;;5073971;28;20056;-81
2022/02/19 00:36:29;;;;;;;6.63;1.15;;;6.20;68.90;;;;;;5074352;28;20028;-81
2022/02/19 00:38:55;;;;;;;6.18;1.63;;;6.20;68.00;;;;;;5074089;28;20119;-81
2022/02/19 00:41:20;;;;;;;10.05;1.85;;;6.20;67.70;;;;;;5074354;28;20537;-81
2022/02/19 00:43:46;;;;;;;11.40;1.77;;;6.20;68.20;;;;;;5074251;28;20028;-81
2022/02/19 00:46:12;;;;;;;6.75;1.20;;;6.30;67.40;;;;;;5074101;28;20476;-81
2022/02/19 00:48:38;;;;;;;11.52;2.15;;;6.30;66.30;;;;;;5074272;28;20027;-80
2022/02/19 00:51:04;;;;;;;7.53;1.15;;;6.20;66.90;;;;;;5074294;28;20020;-81
2022/02/19 00:53:29;;;;;;;8.55;1.15;;;6.10;68.30;;;;;;5074150;28;20020;-80
2022/02/19 00:55:55;;;;;;;6.45;1.27;;;6.00;68.70;;;;;;5073994;28;20039;-80
2022/02/19 00:58:21;;;;;;;7.32;1.05;;;6.00;68.80;;;;;;5057286;28;20025;-81
2022/02/19 01:00:46;;;;;;;5.57;1.00;;;5.90;69.60;;;;;;5073995;28;20021;-81
2022/02/19 01:03:12;;;;;;;8.60;1.75;;;5.80;69.60;;;;;;5073813;28;20035;-81
2022/02/19 01:05:38;;;;;;;8.00;1.40;;;5.80;69.70;;;;;;5073750;28;20021;-81
2022/02/19 01:08:04;;;;;;;4.60;0.98;;;5.80;69.20;;;;;;5074924;28;20025;-80
2022/02/19 01:10:30;;;;;;;5.82;1.00;;;5.80;69.20;;;;;;5077079;28;20027;-80
2022/02/19 01:12:55;;;;;;;7.63;1.33;;;5.70;68.80;;;;;;5095159;28;20030;-80
2022/02/19 01:15:21;;;;;;;5.55;1.25;;;5.80;68.60;;;;;;5076880;28;20046;-80
2022/02/19 01:17:47;;;;;;;9.63;1.30;;;5.80;68.60;;;;;;5076998;28;20383;-80
2022/02/19 01:20:14;;;;;;;7.00;1.48;;;5.80;68.60;;;;;;5076813;28;20039;-81
2022/02/19 01:22:41;;;;;;;5.82;1.17;;;5.60;69.40;;;;;;5076799;28;20047;-80
2022/02/19 01:25:09;;;;;;;10.88;1.30;;;5.60;69.50;;;;;;5076830;28;20020;-80
2022/02/19 01:27:34;;;;;;;6.85;1.52;;;5.70;69.10;;;;;;5076116;28;20024;-81
2022/02/19 01:30:00;;;;;;;6.85;1.25;;;5.60;69.20;;;;;;5076516;28;20555;-81
2022/02/19 01:32:26;;;;;;;7.57;1.50;;;5.60;68.50;;;;;;5076491;28;20016;-82
2022/02/19 01:34:51;;;;;;;8.52;1.75;;;5.70;67.60;;;;;;5076582;28;20384;-80
2022/02/19 01:37:17;;;;;;;10.80;1.40;;;5.60;67.30;;;;;;5060058;28;20020;-80
2022/02/19 01:39:44;;;;;;;9.90;1.33;;;5.60;67.10;;;;;;5076642;28;20107;-80
2022/02/19 01:42:11;;;;;;;8.30;1.73;;;5.60;67.10;;;;;;5094531;28;20088;-80
2022/02/19 01:44:38;;;;;;;10.15;1.85;;;5.60;67.10;;;;;;5075550;28;20380;-81
2022/02/19 01:47:06;;;;;;;12.80;1.98;;;5.60;67.50;;;;;;5076289;28;20031;-80
2022/02/19 01:49:32;;;;;;;8.63;1.20;;;5.60;67.60;;;;;;5076444;28;20020;-80
2022/02/19 01:51:57;;;;;;;13.02;1.45;;;5.60;67.00;;;;;;5075881;28;20020;-81
2022/02/19 01:54:23;;;;;;;5.82;1.20;;;5.60;66.80;;;;;;5076162;28;20032;-80
2022/02/19 01:56:49;;;;;;;8.55;1.95;;;5.60;66.50;;;;;;5076057;28;20037;-81
2022/02/19 01:59:15;;;;;;;6.85;1.50;;;5.60;66.50;;;;;;5076066;28;20435;-81
2022/02/19 02:01:41;;;;;;;10.07;1.40;;;5.60;64.80;;;;;;5076031;28;20445;-81
2022/02/19 02:04:07;;;;;;;11.20;1.95;;;5.70;65.50;;;;;;5094100;28;20032;-80
2022/02/19 02:06:32;;;;;;;5.18;1.70;;;5.60;65.30;;;;;;5076276;28;20028;-80
2022/02/19 02:08:59;;;;;;;8.45;1.52;;;5.60;64.70;;;;;;5075714;28;20056;-80
2022/02/19 02:11:25;;;;;;;10.45;1.83;;;5.50;63.90;;;;;;5075808;28;20024;-80
2022/02/19 02:13:51;;;;;;;12.82;1.70;;;5.60;63.40;;;;;;5075792;28;20116;-80
2022/02/19 02:16:16;;;;;;;9.27;1.83;;;5.50;63.40;;;;;;5075811;28;20480;-80
2022/02/19 02:18:43;;;;;;;18.15;1.95;;;5.50;63.00;;;;;;5075787;28;20024;-81
2022/02/19 02:21:09;;;;;;;8.30;1.60;;;5.50;62.90;;;;;;5075743;28;20120;-80
2022/02/19 02:23:35;;;;;;;7.07;1.17;;;5.50;62.30;;;;;;5075623;28;20066;-80
2022/02/19 02:26:02;;;;;;;9.38;1.75;;;5.50;62.20;;;;;;5075662;28;20474;-80
2022/02/19 02:28:28;;;;;;;6.78;1.33;;;5.50;62.60;;;;;;5075534;28;20020;-80
2022/02/19 02:30:54;;;;;;;8.95;1.60;;;5.60;63.50;;;;;;5075627;28;20480;-80
2022/02/19 02:33:21;;;;;;;9.88;1.60;;;5.50;62.90;;;;;;5075457;28;20164;-79
2022/02/19 02:35:51;;;;;;;9.77;1.70;;;5.50;62.90;;;;;;5075564;28;20036;-81
2022/02/19 02:38:18;;;;;;;5.82;1.30;;;5.50;62.60;;;;;;5075397;28;20450;-81
2022/02/19 02:40:44;;;;;;;10.95;2.00;;;5.50;62.30;;;;;;5075417;28;20024;-81
2022/02/19 02:43:11;;;;;;;12.32;1.65;;;5.60;62.30;;;;;;5075399;28;20020;-81
2022/02/19 02:45:37;;;;;;;10.05;2.30;;;5.60;62.50;;;;;;5075177;28;20024;-82
2022/02/19 02:48:03;;;;;;;11.80;1.98;;;5.50;63.10;;;;;;5058559;28;20640;-82
2022/02/19 02:50:29;;;;;;;12.52;2.28;;;5.50;63.40;;;;;;5075219;28;20040;-81
2022/02/19 02:52:54;;;;;;;12.20;1.33;;;5.50;63.00;;;;;;5075346;28;20455;-78
2022/02/19 02:55:20;;;;;;;11.43;1.90;;;5.50;62.80;;;;;;5075314;28;20519;-80
2022/02/19 02:57:46;;;;;;;11.80;2.08;;;5.40;63.00;;;;;;5075209;28;20384;-80
2022/02/19 03:00:13;;;;;;;8.57;1.48;;;5.40;62.80;;;;;;5075218;28;20035;-81
2022/02/19 03:02:39;;;;;;;14.07;1.60;;;5.40;62.90;;;;;;5075143;28;20476;-80
2022/02/19 03:05:06;;;;;;;13.45;1.75;;;5.40;62.80;;;;;;5075157;28;20028;-75
2022/02/19 03:07:34;;;;;;;15.93;1.70;;;5.40;62.50;;;;;;5074916;28;20074;-75
2022/02/19 03:10:01;;;;;;;11.52;1.52;;;5.40;62.10;;;;;;5074999;28;20048;-81
2022/02/19 03:12:27;;;;;;;7.97;1.90;;;5.40;62.50;;;;;;5074928;28;20483;-81
2022/02/19 03:14:53;;;;;;;11.95;1.80;;;5.40;62.80;;;;;;5075101;28;20068;-81
2022/02/19 03:17:19;;;;;;;12.93;2.20;;;5.30;62.90;;;;;;5074791;28;20028;-81
2022/02/19 03:19:45;;;;;;;15.88;2.63;;;5.30;61.70;;;;;;5075100;28;20472;-81
2022/02/19 03:22:12;;;;;;;10.48;1.70;;;5.30;62.40;;;;;;5074957;28;20040;-81
2022/02/19 03:24:38;;;;;;;8.70;1.83;;;5.30;61.60;;;;;;5074982;28;20027;-81
2022/02/19 03:27:04;;;;;;;15.00;2.35;;;5.20;61.70;;;;;;5075040;28;20023;-81
2022/02/19 03:29:30;;;;;;;11.35;1.88;;;5.30;60.70;;;;;;5074850;28;20043;-81
2022/02/19 03:31:55;;;;;;;16.02;2.95;;;5.30;61.10;;;;;;5074984;28;20024;-81
2022/02/19 03:34:22;;;;;;;11.30;2.00;;;5.30;59.60;;;;;;5074610;28;20491;-81
2022/02/19 03:36:48;;;;;;;10.25;1.55;;;5.30;59.30;;;;;;5074835;28;20115;-81
2022/02/19 03:39:14;;;;;;;9.77;1.63;;;5.30;59.00;;;;;;5074768;28;20033;-82
2022/02/19 03:41:40;;;;;;;12.75;2.30;;;5.30;59.40;;;;;;5074782;28;20051;-81
2022/02/19 03:44:05;;;;;;;21.25;2.20;;;5.30;58.50;;;;;;5074726;28;20426;-80
2022/02/19 03:46:31;;;;;;;12.60;1.73;;;5.20;58.60;;;;;;5074691;28;20111;-81
2022/02/19 03:48:58;;;;;;;20.02;2.38;;;5.30;59.10;;;;;;5074730;28;20024;-81
2022/02/19 03:51:23;;;;;;;14.63;2.75;;;5.20;59.40;;;;;;5074605;28;20027;-81
2022/02/19 03:53:50;;;;;;;17.10;2.20;;;5.20;59.40;;;;;;5074730;28;20020;-81
2022/02/19 03:56:16;;;;;;;12.10;2.10;;;5.30;59.40;;;;;;5074559;28;20155;-80
2022/02/19 03:58:41;;;;;;;8.52;1.50;;;5.40;58.60;;;;;;5074766;28;20421;-80
2022/02/19 04:01:08;;;;;;;18.50;2.67;;;5.30;58.60;;;;;;5074817;28;20372;-80
2022/02/19 04:03:33;;;;;;;12.32;2.08;;;5.20;58.80;;;;;;5074324;28;20024;-80
2022/02/19 04:05:59;;;;;;;13.57;2.40;;;5.20;58.50;;;;;;5074663;28;20028;-80
2022/02/19 04:08:25;;;;;;;10.07;2.45;;;5.20;58.60;;;;;;5072425;28;20478;-81
2022/02/19 04:10:51;;;;;;;13.93;2.65;;;5.20;58.50;;;;;;5074973;28;20119;-80
2022/02/19 04:13:20;;;;;;;13.45;2.45;;;5.10;59.30;;;;;;5074822;28;20056;-81
2022/02/19 04:15:46;;;;;;;15.27;2.80;;;5.20;59.00;;;;;;5074844;28;20036;-81
2022/02/19 04:18:12;;;;;;;12.55;1.88;;;5.10;59.00;;;;;;5074781;28;20104;-81
2022/02/19 04:20:38;;;;;;;11.95;2.20;;;5.10;59.70;;;;;;5075887;28;20028;-81
2022/02/19 04:23:03;;;;;;;15.05;2.67;;;5.10;59.70;;;;;;5074729;28;20020;-80
2022/02/19 04:25:29;;;;;;;14.80;1.95;;;5.10;59.30;;;;;;5074789;28;20082;-81
2022/02/19 04:28:00;;;;;;;14.73;2.88;;;5.10;59.20;;;;;;5074574;28;20021;-81
2022/02/19 04:30:26;;;;;;;13.23;2.05;;;5.10;59.00;;;;;;5074215;28;20028;-80
2022/02/19 04:32:56;;;;;;;20.38;2.78;;;5.10;59.00;;;;;;5074444;28;20613;-80
2022/02/19 04:35:22;;;;;;;15.98;2.17;;;5.00;59.00;;;;;;5074303;28;20095;-81
2022/02/19 04:37:48;;;;;;;14.73;2.08;;;5.00;59.00;;;;;;5074547;28;20066;-80
2022/02/19 04:40:14;;;;;;;14.20;1.85;;;5.00;58.80;;;;;;5074249;28;20020;-81
2022/02/19 04:42:41;;;;;;;10.20;1.83;;;5.00;58.30;;;;;;5074491;28;20021;-80
2022/02/19 04:45:07;;;;;;;9.63;1.88;;;5.00;57.60;;;;;;5074098;28;20467;-78
2022/02/19 04:47:34;;;;;;;17.38;2.08;;;5.00;58.10;;;;;;5074199;28;20055;-79
2022/02/19 04:50:00;;;;;;;10.60;2.60;;;5.00;58.10;;;;;;5074779;28;20431;-78
2022/02/19 04:52:25;;;;;;;10.75;1.83;;;5.00;57.80;;;;;;5074559;28;20119;-80
2022/02/19 04:54:51;;;;;;;17.88;2.10;;;5.00;57.90;;;;;;5074004;28;20029;-81
2022/02/19 04:57:16;;;;;;;10.90;1.70;;;4.90;58.70;;;;;;5073951;28;20028;-80
2022/02/19 04:59:42;;;;;;;9.55;1.42;;;4.80;58.50;;;;;;5074026;28;20021;-81
2022/02/19 05:02:08;;;;;;;14.27;2.05;;;4.80;59.10;;;;;;5073879;28;20471;-80
2022/02/19 05:04:33;;;;;;;12.82;2.08;;;4.70;59.50;;;;;;5074023;28;20032;-79
2022/02/19 05:06:59;;;;;;;11.77;2.42;;;4.80;59.30;;;;;;5073851;28;20031;-81
2022/02/19 05:09:24;;;;;;;12.65;1.75;;;4.80;59.10;;;;;;5073632;28;20119;-80
2022/02/19 05:11:50;;;;;;;10.25;1.85;;;4.70;59.00;;;;;;5073859;28;20024;-80
2022/02/19 05:14:15;;;;;;;13.20;1.77;;;4.70;59.20;;;;;;5073499;28;20040;-80
2022/02/19 05:16:41;;;;;;;10.57;1.88;;;4.70;59.50;;;;;;5073899;28;20451;-80
2022/02/19 05:19:07;;;;;;;11.73;2.10;;;4.80;59.40;;;;;;5073014;28;20500;-80
2022/02/19 05:21:33;;;;;;;10.95;2.15;;;4.70;59.50;;;;;;5072715;28;20021;-81
2022/02/19 05:23:59;;;;;;;12.70;1.75;;;4.70;59.60;;;;;;5073604;28;20123;-80
2022/02/19 05:26:25;;;;;;;12.65;2.05;;;4.70;59.50;;;;;;5073325;28;20070;-80
2022/02/19 05:28:50;;;;;;;11.93;3.33;;;4.80;59.20;;;;;;5073650;28;20158;-80
2022/02/19 05:31:16;;;;;;;15.45;2.05;;;4.80;59.20;;;;;;5073460;28;20052;-80
2022/02/19 05:33:41;;;;;;;9.50;1.80;;;4.80;58.80;;;;;;5073494;28;20042;-80
2022/02/19 05:36:07;;;;;;;12.25;2.47;;;4.80;58.50;;;;;;5073223;28;20063;-80
2022/02/19 05:38:34;;;;;;;14.20;1.98;;;4.70;58.30;;;;;;5073591;28;20024;-80
2022/02/19 05:40:59;;;;;;;12.65;1.73;;;4.70;57.80;;;;;;5073265;28;20024;-79
2022/02/19 05:43:25;;;;;;;7.55;1.63;;;4.80;57.70;;;;;;5073253;28;20025;-81
2022/02/19 05:45:51;;;;;;;9.18;2.22;;;4.80;57.60;;;;;;5072601;28;20391;-81
2022/02/19 05:48:17;;;;;;;12.55;2.50;;;4.80;57.70;;;;;;5072872;28;20024;-77
2022/02/19 05:50:46;;;;;;;11.55;2.17;;;4.80;58.30;;;;;;5072909;28;20021;-79
2022/02/19 05:53:13;;;;;;;16.85;3.85;;;4.80;57.60;;;;;;5072871;28;20107;-80
2022/02/19 05:55:39;;;;;;;15.63;3.13;;;4.90;57.90;;;;;;5072933;28;20033;-80
2022/02/19 05:58:05;;;;;;;13.63;1.92;;;4.90;57.90;;;;;;5072884;28;20024;-77
2022/02/19 06:00:31;;;;;;;15.38;1.92;;;4.90;57.80;;;;;;5072777;28;20472;-80
2022/02/19 06:02:57;;;;;;;22.10;4.32;;;4.80;58.20;;;;;;5072922;28;20024;-80
2022/02/19 06:05:23;;;;;;;9.25;2.30;;;4.60;58.80;;;;;;5072697;28;20035;-82
2022/02/19 06:07:49;;;;;;;15.85;2.35;;;4.60;58.70;;;;;;5072520;28;20025;-80
2022/02/19 06:10:16;;;;;;;15.55;2.28;;;4.50;59.00;;;;;;5072115;28;20258;-77
2022/02/19 06:12:41;;;;;;;10.25;2.08;;;4.50;59.90;;;;;;5072484;28;20413;-81
2022/02/19 06:15:08;;;;;;;14.93;2.75;;;4.40;59.80;;;;;;5055706;28;20176;-80
2022/02/19 06:17:34;;;;;;;13.40;2.58;;;4.50;60.00;;;;;;5072460;28;20024;-81
2022/02/19 06:19:59;;;;;;;6.68;1.58;;;4.50;60.30;;;;;;5072263;28;20089;-81
2022/02/19 06:22:25;;;;;;;13.05;2.35;;;4.50;60.60;;;;;;5072386;28;20032;-80
2022/02/19 06:24:51;;;;;;;14.02;1.80;;;4.50;60.40;;;;;;5071538;28;20542;-81
2022/02/19 06:27:17;;;;;;;15.38;2.60;;;4.50;60.10;;;;;;5072217;28;20031;-80
2022/02/19 06:29:43;;;;;;;9.60;2.55;;;4.50;60.60;;;;;;5073525;28;20126;-81
2022/02/19 06:32:09;;;;;;;20.50;3.10;;;4.50;60.30;;;;;;5071739;28;20096;-82
2022/02/19 06:34:35;;;;;;;15.48;2.55;;;4.40;60.40;;;;;;5072016;28;20366;-80
2022/02/19 06:37:01;;;;;;;9.73;1.77;;;4.30;60.70;;;;;;5055661;28;20032;-82
2022/02/19 06:39:27;;;;;;;18.33;3.35;;;4.40;60.90;;;;;;5071105;28;20037;-81
2022/02/19 06:41:52;;;;;;;17.25;3.28;;;4.30;61.30;;;;;;5071958;28;20024;-81
2022/02/19 06:44:18;;;;;;;16.20;2.97;;;4.20;61.60;;;;;;5071784;28;20024;-80
2022/02/19 06:46:44;;;;;;;10.68;2.63;;;4.30;61.90;;;;;;5071667;28;20082;-78
2022/02/19 06:49:10;;;;;;;9.43;1.98;;;4.20;61.60;;;;;;5072747;28;20020;-80
2022/02/19 06:51:35;;;;;;;9.77;2.08;;;4.30;61.70;;;;;;5071580;28;20021;-79
2022/02/19 06:54:01;;;;;;;12.02;2.10;;;4.20;61.40;;;;;;5071655;28;20020;-81
2022/02/19 06:56:30;;;;;;;14.30;2.15;;;4.20;62.10;;;;;;5071615;28;20033;-79
2022/02/19 06:58:56;;;;;;;13.75;2.80;;;4.30;61.30;;;;;;5071864;28;20017;-81
2022/02/19 07:01:21;;;;;;;15.13;2.50;;;4.30;61.30;;;;;;5071532;28;20495;-82
2022/02/19 07:03:47;;;;;;;18.98;4.15;;;4.40;60.80;;;;;;5071083;28;20020;-81
2022/02/19 07:06:13;;;;;;;11.73;2.17;;;4.40;60.50;;;;;;5071351;28;20048;-79
2022/02/19 07:08:39;;;;;;;14.50;2.15;;;4.40;60.00;;;;;;5078830;28;20392;-79
2022/02/19 07:11:05;;;;;;;24.33;4.18;;;4.30;60.30;;;;;;5074774;28;20024;-78
2022/02/19 07:13:31;;;;;;;11.90;2.20;;;4.40;60.60;;;;;;5074685;28;20028;-79
2022/02/19 07:15:58;;;;;;;21.55;3.22;;;4.40;60.40;;;;;;5074587;28;20131;-81
2022/02/19 07:18:23;;;;;;;15.57;2.83;;;4.40;60.50;;;;;;5058088;28;20032;-80
2022/02/19 07:20:49;;;;;;;25.38;4.63;;;4.40;60.30;;;;;;5093013;28;20043;-81
2022/02/19 07:23:15;;;;;;;18.60;2.42;;;4.40;60.60;;;;;;5074633;28;20024;-79
2022/02/19 07:25:41;;;;;;;17.10;3.22;;;4.60;60.30;;;;;;5074918;28;20028;-81
2022/02/19 07:28:07;;;;;;;21.90;2.90;;;4.60;60.20;;;;;;5057787;28;20039;-82
2022/02/19 07:30:35;;;;;;;19.95;3.35;;;4.60;60.20;;;;;;5074816;28;20028;-82
2022/02/19 07:33:01;;;;;;;33.22;9.05;;;4.70;60.30;;;;;;5074840;28;20081;-78
2022/02/19 07:35:28;;;;;;;19.42;3.22;;;4.80;59.60;;;;;;5092704;28;20048;-80
2022/02/19 07:37:55;;;;;;;11.88;2.60;;;4.80;59.50;;;;;;5058112;28;20039;-79
2022/02/19 07:40:20;;;;;;;15.50;3.20;;;4.90;59.60;;;;;;5090903;28;20046;-78
2022/02/19 07:42:46;;;;;;;11.23;2.70;;;5.00;59.20;;;;;;5074910;28;20024;-76
2022/02/19 07:45:12;;;;;;;15.15;2.88;;;5.00;59.20;;;;;;5078391;28;20384;-82
2022/02/19 07:47:38;;;;;;;13.25;2.63;;;5.10;59.20;;;;;;5096818;28;20020;-78
2022/02/19 07:58:26;;;;;;;11.82;2.47;;;5.50;58.00;;;;;;5096583;28;20503;-78
2022/02/19 08:00:57;;;;;;;9.70;1.75;;;5.70;57.70;;;;;;5078086;28;20430;-77
2022/02/19 08:03:26;;;;;;;12.57;2.17;;;5.80;56.70;;;;;;5077932;28;20020;-78
2022/02/19 08:05:52;;;;;;;16.88;2.60;;;5.90;56.40;;;;;;5078200;28;20020;-82
2022/02/19 08:08:18;;;;;;;13.95;2.88;;;6.00;56.00;;;;;;5077915;28;20079;-77
2022/02/19 08:10:46;;;;;;;14.27;3.13;;;6.10;55.50;;;;;;5078104;28;20088;-76
2022/02/19 08:13:12;;;;;;;12.57;2.08;;;6.10;55.60;;;;;;5061341;28;20456;-76
2022/02/19 08:15:38;;;;;;;13.95;2.65;;;6.10;55.00;;;;;;5077818;28;20064;-76
2022/02/19 08:18:05;;;;;;;9.80;2.30;;;6.00;55.50;;;;;;5077758;28;20020;-77
2022/02/19 08:20:32;;;;;;;13.10;2.15;;;6.00;55.90;;;;;;5077598;28;20059;-77
2022/02/19 08:22:59;;;;;;;20.20;2.95;;;6.10;55.60;;;;;;5077898;28;20024;-77
2022/02/19 08:25:26;;;;;;;15.00;2.47;;;6.00;56.00;;;;;;5077567;28;20023;-78
2022/02/19 08:27:52;;;;;;;15.50;3.13;;;6.00;56.30;;;;;;5095878;28;20361;-77
2022/02/19 08:30:18;;;;;;;13.60;2.55;;;6.20;57.20;;;;;;5077260;28;20115;-79
2022/02/19 08:32:43;;;;;;;14.73;2.78;;;6.00;57.00;;;;;;5076864;28;20031;-77
2022/02/19 08:35:09;;;;;;;12.73;2.85;;;6.20;57.20;;;;;;5095351;28;20119;-77
2022/02/19 08:37:36;;;;;;;14.30;2.70;;;6.50;57.00;;;;;;5095560;28;20099;-77
2022/02/19 08:40:01;;;;;;;11.60;1.90;;;6.90;55.90;;;;;;5077310;28;20024;-77
2022/02/19 08:42:27;;;;;;;13.43;3.08;;;7.20;53.80;;;;;;5076806;28;20024;-76
2022/02/19 08:44:53;;;;;;;16.27;2.92;;;7.20;52.20;;;;;;5077256;28;20028;-76
2022/02/19 08:47:18;;;;;;;10.15;2.60;;;7.10;53.20;;;;;;5076982;28;20066;-78
2022/02/19 08:49:44;;;;;;;19.27;3.30;;;7.20;52.90;;;;;;5077130;28;20020;-76
2022/02/19 08:52:09;;;;;;;18.35;2.75;;;6.90;52.20;;;;;;5076996;28;20016;-76
2022/02/19 08:54:35;;;;;;;15.57;2.10;;;6.90;53.60;;;;;;5076745;28;20085;-80
2022/02/19 08:57:04;;;;;;;16.40;2.53;;;6.40;52.20;;;;;;5077145;28;20089;-77
2022/02/19 08:59:30;;;;;;;12.52;2.50;;;6.10;54.40;;;;;;5076671;28;20111;-79
2022/02/19 09:01:58;;;;;;;19.30;2.47;;;6.10;55.70;;;;;;5077037;28;20119;-78
2022/02/19 09:04:24;;;;;;;11.32;2.95;;;6.10;56.10;;;;;;5076961;28;20024;-77
2022/02/19 09:06:50;;;;;;;16.45;2.20;;;6.30;55.70;;;;;;5094919;28;20020;-76
2022/02/19 09:09:15;;;;;;;16.63;2.35;;;6.40;55.50;;;;;;5073261;28;20059;-77
2022/02/19 09:11:41;;;;;;;15.02;2.42;;;6.60;55.50;;;;;;5073393;28;20060;-78
2022/02/19 09:14:07;;;;;;;12.77;3.10;;;6.70;52.60;;;;;;5072849;28;20610;-77
2022/02/19 09:16:34;;;;;;;13.48;2.53;;;6.80;50.40;;;;;;5073196;28;20055;-78
2022/02/19 09:19:01;;;;;;;14.73;2.80;;;6.50;49.20;;;;;;5073179;28;20119;-77
2022/02/19 09:21:30;;;;;;;15.23;1.95;;;6.40;50.30;;;;;;5073221;28;20088;-77
2022/02/19 09:23:56;;;;;;;10.63;2.00;;;6.20;50.10;;;;;;5072965;28;20021;-77
2022/02/19 09:26:21;;;;;;;15.95;2.63;;;6.30;52.10;;;;;;5072817;28;20162;-76
2022/02/19 09:28:48;;;;;;;12.70;2.30;;;6.10;52.80;;;;;;5057655;28;20453;-77
2022/02/19 09:31:14;;;;;;;18.83;2.45;;;6.00;52.90;;;;;;5075143;28;20571;-77
2022/02/19 09:33:40;;;;;;;11.13;2.05;;;5.90;53.90;;;;;;5075185;28;20053;-80
2022/02/19 09:36:07;;;;;;;15.63;2.45;;;5.90;55.20;;;;;;5072581;28;20079;-76
2022/02/19 09:38:34;;;;;;;17.08;2.33;;;6.20;54.20;;;;;;5073818;28;20021;-79
2022/02/19 09:41:02;;;;;;;14.02;2.92;;;6.30;54.10;;;;;;5072589;28;20025;-78
2022/02/19 09:43:28;;;;;;;14.57;4.00;;;6.50;53.50;;;;;;5072723;28;20495;-82
2022/02/19 09:45:54;;;;;;;12.27;2.17;;;6.60;53.00;;;;;;5072651;28;20035;-77
2022/02/19 09:48:21;;;;;;;14.38;2.92;;;6.70;52.20;;;;;;5072359;28;20028;-78
2022/02/19 09:50:51;;;;;;;14.68;2.22;;;6.90;51.70;;;;;;5055832;28;20025;-77
2022/02/19 09:53:18;;;;;;;14.60;2.20;;;6.90;50.90;;;;;;5072205;28;20112;-78
2022/02/19 09:55:43;;;;;;;8.82;2.03;;;7.10;49.70;;;;;;5072122;28;20037;-79
2022/02/19 09:58:10;;;;;;;6.53;1.95;;;7.20;47.60;;;;;;5072172;28;20078;-80
2022/02/19 10:00:39;;;;;;;8.80;2.40;;;7.30;48.20;;;;;;5072352;28;20465;-76
2022/02/19 10:03:12;;;;;;;8.15;1.80;;;7.50;46.20;;;;;;5072580;28;20017;-76
2022/02/19 10:05:38;;;;;;;9.25;2.28;;;7.40;47.20;;;;;;5071720;28;20111;-76
2022/02/19 10:08:07;;;;;;;9.85;2.05;;;7.30;47.70;;;;;;5073415;28;20035;-79
2022/02/19 10:11:01;;;;;;;10.05;2.15;;;7.40;46.40;;;;;;5074934;28;20403;-79
2022/02/19 10:13:38;;;;;;;9.75;2.03;;;7.70;45.10;;;;;;5074545;28;20040;-78
2022/02/19 10:16:09;;;;;;;10.57;2.13;;;7.90;44.80;;;;;;5075559;28;20109;-77
2022/02/19 10:18:44;;;;;;;9.95;1.95;;;8.10;44.00;;;;;;5059003;28;20031;-79
2022/02/19 10:21:16;;;;;;;9.07;2.35;;;8.20;42.60;;;;;;5075306;28;20119;-78
2022/02/19 10:23:50;;;;;;;7.20;2.20;;;8.00;42.90;;;;;;5093287;28;20028;-80
2022/02/19 10:26:19;;;;;;;8.87;2.03;;;8.20;42.60;;;;;;5075355;28;20026;-77
2022/02/19 10:29:05;;;;;;;8.43;2.00;;;8.10;42.50;;;;;;5075257;28;20024;-79
2022/02/19 10:31:32;;;;;;;14.60;2.33;;;7.90;42.30;;;;;;5075067;28;20020;-78
2022/02/19 10:34:05;;;;;;;12.55;1.83;;;7.60;43.60;;;;;;5074608;28;20028;-77
2022/02/19 10:36:41;;;;;;;10.23;2.28;;;7.40;42.70;;;;;;5075027;28;20103;-78
2022/02/19 10:39:08;;;;;;;7.55;1.80;;;7.30;43.10;;;;;;5074913;28;20051;-78
2022/02/19 10:41:39;;;;;;;10.02;1.88;;;7.30;43.00;;;;;;5074933;28;20028;-77
2022/02/19 10:44:35;;;;;;;9.75;1.63;;;7.00;43.70;;;;;;5074681;28;20031;-77
2022/02/19 10:47:19;;;;;;;10.07;1.90;;;7.20;44.10;;;;;;5071116;28;20028;-76
2022/02/19 10:50:04;;;;;;;8.63;1.48;;;7.20;44.00;;;;;;5093212;28;20226;-78
2022/02/19 10:52:30;;;;;;;7.65;2.10;;;7.30;43.70;;;;;;5075005;28;20051;-79
2022/02/19 10:55:06;;;;;;;10.95;1.65;;;7.30;43.40;;;;;;5092696;28;20028;-79
2022/02/19 10:57:37;;;;;;;7.75;1.67;;;7.20;44.10;;;;;;5074604;28;20330;-77
2022/02/19 11:00:10;;;;;;;12.65;2.13;;;7.20;44.20;;;;;;5074871;28;20357;-78
2022/02/19 11:02:38;;;;;;;7.53;1.80;;;7.20;44.50;;;;;;5074746;28;20051;-78
2022/02/19 11:05:08;;;;;;;10.25;1.75;;;7.10;44.60;;;;;;5092854;28;20047;-76
2022/02/19 11:07:37;;;;;;;8.48;2.05;;;7.00;42.80;;;;;;5092945;28;20099;-78
2022/02/19 11:10:04;;;;;;;9.45;1.20;;;6.90;44.00;;;;;;5074775;28;20048;-77
2022/02/19 11:12:30;;;;;;;8.18;1.25;;;6.90;43.70;;;;;;5074899;28;20017;-77
2022/02/19 11:14:57;;;;;;;7.82;1.60;;;7.10;43.00;;;;;;5074546;28;20020;-77
2022/02/19 11:17:26;;;;;;;6.57;1.75;;;7.10;41.50;;;;;;5094251;28;20028;-78
2022/02/19 11:19:51;;;;;;;11.50;1.83;;;7.10;41.80;;;;;;5079110;28;20039;-78
2022/02/19 11:22:20;;;;;;;8.13;1.52;;;7.10;42.70;;;;;;5079245;28;20440;-77
2022/02/19 11:24:46;;;;;;;10.20;1.85;;;7.20;41.90;;;;;;5097180;28;20036;-78
2022/02/19 11:27:15;;;;;;;10.70;1.42;;;7.10;40.90;;;;;;5078897;28;20016;-79
2022/02/19 11:29:42;;;;;;;9.95;1.70;;;6.90;41.70;;;;;;5078790;28;20067;-78
2022/02/19 11:32:16;;;;;;;10.02;1.75;;;6.70;43.20;;;;;;5078672;28;20024;-78
2022/02/19 11:34:47;;;;;;;7.45;1.42;;;6.80;44.30;;;;;;5078554;28;20028;-80
2022/02/19 11:37:18;;;;;;;9.57;1.77;;;7.10;43.70;;;;;;5078266;28;20056;-78
2022/02/19 11:40:10;;;;;;;2.83;1.02;;;7.60;43.50;;;;;;5096632;28;20020;-78
2022/02/19 11:42:38;;;;;;;8.25;1.70;;;8.30;41.70;;;;;;5079023;28;20032;-81
2022/02/19 11:45:27;;;;;;;8.68;1.70;;;8.70;39.40;;;;;;5078555;28;20165;-81
2022/02/19 11:48:17;;;;;;;7.45;1.80;;;8.80;39.00;;;;;;5097066;28;20020;-78
2022/02/19 11:50:44;;;;;;;9.68;1.67;;;8.80;39.70;;;;;;5067820;28;20047;-81
2022/02/19 11:53:09;;;;;;;4.22;1.77;;;8.70;39.70;;;;;;5096509;28;20062;-81
2022/02/19 11:55:43;;;;;;;8.45;1.70;;;9.10;40.10;;;;;;5078232;28;20063;-78
2022/02/19 11:58:13;;;;;;;7.82;1.83;;;9.50;38.80;;;;;;5077988;28;20115;-81
2022/02/19 12:00:51;;;;;;;8.95;1.95;;;9.30;39.20;;;;;;5078184;28;20047;-81
2022/02/19 12:03:22;;;;;;;10.23;2.70;;;9.00;39.80;;;;;;5078003;28;20072;-80
2022/02/19 12:06:10;;;;;;;6.32;2.00;;;9.30;39.70;;;;;;5077859;28;20024;-78
2022/02/19 12:08:48;;;;;;;9.93;1.77;;;9.30;39.80;;;;;;5077189;28;20071;-77
2022/02/19 12:11:15;;;;;;;9.25;1.85;;;9.30;39.30;;;;;;5077962;28;20036;-77
2022/02/19 12:13:49;;;;;;;9.75;1.98;;;9.50;39.70;;;;;;5077899;28;20464;-77
2022/02/19 12:16:30;;;;;;;6.63;1.45;;;9.90;38.60;;;;;;5078019;28;20391;-78
2022/02/19 12:19:00;;;;;;;7.85;1.60;;;9.90;38.30;;;;;;5077849;28;20016;-78
2022/02/19 12:21:38;;;;;;;8.40;2.00;;;9.60;37.80;;;;;;5077442;28;20028;-78
2022/02/19 12:24:13;;;;;;;10.07;1.90;;;9.00;38.70;;;;;;5095705;28;20028;-78
2022/02/19 12:30:11;;;;;;;8.52;1.80;;;8.80;40.90;;;;;;5095465;28;20024;-80
2022/02/19 12:32:43;;;;;;;7.32;2.00;;;9.00;39.50;;;;;;5085415;28;20039;-79
2022/02/19 12:35:10;;;;;;;6.93;1.77;;;9.00;40.40;;;;;;5077170;28;20035;-78
2022/02/19 12:37:36;;;;;;;9.75;1.73;;;8.70;39.70;;;;;;5077260;28;20097;-81
2022/02/19 12:40:03;;;;;;;9.25;2.03;;;8.30;38.70;;;;;;5077529;28;20165;-81
2022/02/19 12:42:31;;;;;;;5.72;1.42;;;8.30;39.80;;;;;;5076902;28;20375;-79
2022/02/19 12:45:07;;;;;;;6.38;1.45;;;8.50;39.90;;;;;;5060902;28;20025;-80
2022/02/19 12:47:37;;;;;;;7.03;1.73;;;9.00;38.70;;;;;;5061049;28;20036;-78
2022/02/19 12:50:07;;;;;;;4.30;1.65;;;9.20;38.20;;;;;;5077524;28;20496;-79
2022/02/19 12:52:36;;;;;;;10.18;1.73;;;9.20;38.40;;;;;;5077611;28;20447;-83
2022/02/19 12:55:10;;;;;;;7.32;2.10;;;9.20;38.60;;;;;;5077420;28;20043;-80
2022/02/19 12:57:35;;;;;;;6.35;1.35;;;9.20;37.60;;;;;;5094270;28;20017;-81
2022/02/19 13:00:05;;;;;;;5.07;1.55;;;9.10;37.30;;;;;;5077472;28;20043;-81
2022/02/19 13:02:30;;;;;;;5.10;1.65;;;9.00;37.60;;;;;;5076829;28;20022;-81
2022/02/19 13:04:59;;;;;;;7.00;1.52;;;8.80;38.90;;;;;;5077209;28;20111;-82